Time;durP1;ratioP1;P1;durP2;ratioP2;P2;SDS_P1;SDS_P2;PMS_P1;PMS_P2;Temp;Humidity;BMP_temperature;BMP_pressure;BME280_temperature;BME280_humidity;BME280_pressure;Samples;Min_cycle;Max_cycle;Signal;HPM_P1;HPM_P2
2024/03/18 00:01:40;;;;;;;;;;;;;;;;;;4986473;28;89770;-74
2024/03/18 00:04:05;;;;;;;;;;;;;;;;;;4986354;28;89550;-75
2024/03/18 00:06:30;;;;;;;;;;;;;;;;;;4987732;28;92480;-75
2024/03/18 00:08:56;;;;;;;;;;;;;;;;;;4985736;28;89036;-75
2024/03/18 00:11:21;;;;;;;;;;;;;;;;;;4967301;28;90118;-74
2024/03/18 00:13:46;;;;;;;;;;;;;;;;;;4967253;28;89753;-74
2024/03/18 00:16:11;;;;;;;;;;;;;;;;;;4967377;28;89155;-75
2024/03/18 00:18:36;;;;;;;;;;;;;;;;;;4965872;28;92423;-75
2024/03/18 00:21:02;;;;;;;;;;;;;;;;;;4966649;28;89337;-74
2024/03/18 00:23:27;;;;;;;;;;;;;;;;;;4964829;28;90850;-75
2024/03/18 00:25:52;;;;;;;;;;;;;;;;;;4966096;28;90005;-74
2024/03/18 00:28:18;;;;;;;;;;;;;;;;;;4969164;28;89529;-74
2024/03/18 00:30:44;;;;;;;;;;;;;;;;;;4966047;28;90351;-75
2024/03/18 00:33:09;;;;;;;;;;;;;;;;;;4966424;28;89984;-75
2024/03/18 00:35:34;;;;;;;;;;;;;;;;;;4964805;28;91412;-75
2024/03/18 00:37:59;;;;;;;;;;;;;;;;;;4965560;28;89036;-74
2024/03/18 00:40:24;;;;;;;;;;;;;;;;;;4966839;28;89576;-75
2024/03/18 00:42:49;;;;;;;;;;;;;;;;;;4965904;28;89106;-75
2024/03/18 00:45:16;;;;;;;;;;;;;;;;;;4965866;28;89536;-74
2024/03/18 00:47:41;;;;;;;;;;;;;;;;;;4965333;28;89272;-74
2024/03/18 00:50:10;;;;;;;;;;;;;;;;;;4968942;28;89071;-74
2024/03/18 00:52:36;;;;;;;;;;;;;;;;;;4967879;28;91848;-75
2024/03/18 00:55:02;;;;;;;;;;;;;;;;;;4969161;28;89064;-75
2024/03/18 00:57:27;;;;;;;;;;;;;;;;;;4969068;28;89761;-74
2024/03/18 00:59:52;;;;;;;;;;;;;;;;;;4968661;28;89357;-75
2024/03/18 01:02:17;;;;;;;;;;;;;;;;;;4969320;28;89474;-75
2024/03/18 01:04:43;;;;;;;;;;;;;;;;;;4969819;28;89629;-74
2024/03/18 01:07:08;;;;;;;;;;;;;;;;;;4969616;28;90225;-74
2024/03/18 01:09:33;;;;;;;;;;;;;;;;;;4972198;28;89585;-74
2024/03/18 01:11:59;;;;;;;;;;;;;;;;;;4969083;28;89541;-75
2024/03/18 01:14:24;;;;;;;;;;;;;;;;;;4969342;28;89120;-75
2024/03/18 01:16:49;;;;;;;;;;;;;;;;;;4968934;28;88978;-75
2024/03/18 01:19:15;;;;;;;;;;;;;;;;;;4968834;28;89472;-74
2024/03/18 01:21:40;;;;;;;;;;;;;;;;;;4969227;28;89041;-75
2024/03/18 01:24:05;;;;;;;;;;;;;;;;;;4967787;28;92355;-75
2024/03/18 01:26:30;;;;;;;;;;;;;;;;;;4969236;28;89320;-75
2024/03/18 01:28:56;;;;;;;;;;;;;;;;;;4969954;28;89468;-75
2024/03/18 01:31:21;;;;;;;;;;;;;;;;;;4972261;28;90010;-75
2024/03/18 01:33:47;;;;;;;;;;;;;;;;;;4968613;28;89102;-75
2024/03/18 01:36:12;;;;;;;;;;;;;;;;;;4968679;28;89707;-75
2024/03/18 01:38:37;;;;;;;;;;;;;;;;;;4968980;28;89514;-75
2024/03/18 01:41:03;;;;;;;;;;;;;;;;;;4967760;28;89705;-74
2024/03/18 01:43:28;;;;;;;;;;;;;;;;;;4969588;28;91279;-75
2024/03/18 01:45:53;;;;;;;;;;;;;;;;;;4969469;28;91029;-74
2024/03/18 01:48:18;;;;;;;;;;;;;;;;;;4969493;28;89832;-75
2024/03/18 01:50:45;;;;;;;;;;;;;;;;;;4969972;28;90250;-74
2024/03/18 01:53:10;;;;;;;;;;;;;;;;;;4972312;28;89410;-75
2024/03/18 01:55:36;;;;;;;;;;;;;;;;;;4968945;28;89698;-74
2024/03/18 01:58:02;;;;;;;;;;;;;;;;;;4968754;28;89583;-75
2024/03/18 02:00:35;;;;;;;;;;;;;;;;;;4970806;28;89660;-74
2024/03/18 02:03:01;;;;;;;;;;;;;;;;;;4978658;28;90084;-75
2024/03/18 02:05:27;;;;;;;;;;;;;;;;;;4968753;28;89227;-75
2024/03/18 02:07:52;;;;;;;;;;;;;;;;;;4968809;28;89467;-74
2024/03/18 02:10:17;;;;;;;;;;;;;;;;;;4968325;28;89791;-74
2024/03/18 02:12:42;;;;;;;;;;;;;;;;;;4968853;28;89452;-74
2024/03/18 02:15:08;;;;;;;;;;;;;;;;;;4972002;28;89393;-75
2024/03/18 02:17:33;;;;;;;;;;;;;;;;;;4967199;28;90456;-74
2024/03/18 02:19:58;;;;;;;;;;;;;;;;;;4969143;28;89078;-74
2024/03/18 02:22:23;;;;;;;;;;;;;;;;;;4968508;28;90720;-75
2024/03/18 02:24:48;;;;;;;;;;;;;;;;;;4968064;28;89177;-75
2024/03/18 02:27:14;;;;;;;;;;;;;;;;;;4968827;28;89786;-74
2024/03/18 02:29:40;;;;;;;;;;;;;;;;;;4968212;28;90649;-74
2024/03/18 02:32:05;;;;;;;;;;;;;;;;;;4968234;28;89469;-75
2024/03/18 02:34:31;;;;;;;;;;;;;;;;;;4968284;28;89069;-75
2024/03/18 02:36:57;;;;;;;;;;;;;;;;;;4971459;28;89922;-75
2024/03/18 02:39:22;;;;;;;;;;;;;;;;;;4968423;28;89064;-75
2024/03/18 02:41:56;;;;;;;;;;;;;;;;;;4969078;28;89736;-75
2024/03/18 02:44:21;;;;;;;;;;;;;;;;;;4966974;28;91834;-75
2024/03/18 02:46:47;;;;;;;;;;;;;;;;;;4968079;28;89732;-74
2024/03/18 02:49:13;;;;;;;;;;;;;;;;;;4966784;28;92535;-75
2024/03/18 02:51:38;;;;;;;;;;;;;;;;;;4968482;28;89072;-74
2024/03/18 02:54:04;;;;;;;;;;;;;;;;;;4968401;28;89525;-75
2024/03/18 02:56:29;;;;;;;;;;;;;;;;;;4968510;28;89774;-75
2024/03/18 02:58:55;;;;;;;;;;;;;;;;;;4969817;28;92112;-74
2024/03/18 03:01:23;;;;;;;;;;;;;;;;;;4966980;28;91805;-75
2024/03/18 03:03:51;;;;;;;;;;;;;;;;;;4967606;28;89794;-74
2024/03/18 03:06:16;;;;;;;;;;;;;;;;;;4967943;28;89103;-74
2024/03/18 03:08:42;;;;;;;;;;;;;;;;;;4967778;28;89731;-75
2024/03/18 03:11:07;;;;;;;;;;;;;;;;;;4967300;28;89549;-74
2024/03/18 03:13:33;;;;;;;;;;;;;;;;;;4965950;28;91324;-74
2024/03/18 03:15:59;;;;;;;;;;;;;;;;;;4967653;28;90036;-74
2024/03/18 03:18:24;;;;;;;;;;;;;;;;;;4970323;28;89176;-74
2024/03/18 03:20:51;;;;;;;;;;;;;;;;;;4966071;28;92144;-75
2024/03/18 03:23:16;;;;;;;;;;;;;;;;;;4967133;28;89682;-74
2024/03/18 03:25:43;;;;;;;;;;;;;;;;;;4967857;28;89499;-75
2024/03/18 03:28:08;;;;;;;;;;;;;;;;;;4967774;28;89776;-75
2024/03/18 03:30:34;;;;;;;;;;;;;;;;;;4967206;28;89628;-74
2024/03/18 03:32:59;;;;;;;;;;;;;;;;;;4967330;28;89076;-75
2024/03/18 03:35:24;;;;;;;;;;;;;;;;;;4966927;28;88973;-75
2024/03/18 03:37:49;;;;;;;;;;;;;;;;;;4966719;28;89424;-75
2024/03/18 03:40:16;;;;;;;;;;;;;;;;;;4969719;28;89801;-75
2024/03/18 03:42:41;;;;;;;;;;;;;;;;;;4966742;28;89337;-75
2024/03/18 03:45:07;;;;;;;;;;;;;;;;;;4966846;28;89427;-75
2024/03/18 03:47:33;;;;;;;;;;;;;;;;;;4966743;28;89726;-74
2024/03/18 03:49:58;;;;;;;;;;;;;;;;;;4966980;28;89510;-75
2024/03/18 03:52:23;;;;;;;;;;;;;;;;;;4967050;28;89081;-74
2024/03/18 03:54:49;;;;;;;;;;;;;;;;;;4966875;28;89394;-75
2024/03/18 03:57:15;;;;;;;;;;;;;;;;;;4978283;28;91902;-75
2024/03/18 03:59:40;;;;;;;;;;;;;;;;;;4985692;28;89404;-74
2024/03/18 04:02:05;;;;;;;;;;;;;;;;;;4988836;28;89566;-75
2024/03/18 04:04:30;;;;;;;;;;;;;;;;;;4982927;28;89490;-75
2024/03/18 04:06:55;;;;;;;;;;;;;;;;;;4966395;28;91355;-74
2024/03/18 04:09:21;;;;;;;;;;;;;;;;;;4965864;28;90320;-74
2024/03/18 04:11:47;;;;;;;;;;;;;;;;;;4964700;28;90772;-74
2024/03/18 04:14:12;;;;;;;;;;;;;;;;;;4966324;28;89680;-74
2024/03/18 04:16:38;;;;;;;;;;;;;;;;;;4966347;28;89500;-73
2024/03/18 04:19:03;;;;;;;;;;;;;;;;;;4967055;28;89451;-75
2024/03/18 04:21:29;;;;;;;;;;;;;;;;;;4966872;28;89776;-74
2024/03/18 04:23:54;;;;;;;;;;;;;;;;;;4969390;28;89562;-75
2024/03/18 04:26:19;;;;;;;;;;;;;;;;;;4968579;28;89331;-74
2024/03/18 04:28:45;;;;;;;;;;;;;;;;;;4969737;28;89616;-76
2024/03/18 04:31:11;;;;;;;;;;;;;;;;;;4969840;28;89203;-78
2024/03/18 04:33:40;;;;;;;;;;;;;;;;;;4973353;28;91049;-75
2024/03/18 04:36:05;;;;;;;;;;;;;;;;;;4978468;28;90497;-75
2024/03/18 04:38:31;;;;;;;;;;;;;;;;;;4978159;28;89529;-75
2024/03/18 04:40:56;;;;;;;;;;;;;;;;;;4979852;28;89787;-75
2024/03/18 04:43:22;;;;;;;;;;;;;;;;;;4984043;28;89380;-75
2024/03/18 04:45:47;;;;;;;;;;;;;;;;;;4981976;28;89064;-75
2024/03/18 04:48:12;;;;;;;;;;;;;;;;;;5008722;28;90866;-75
2024/03/18 04:50:37;;;;;;;;;;;;;;;;;;4980011;28;89147;-75
2024/03/18 04:53:03;;;;;;;;;;;;;;;;;;4984049;28;89443;-75
2024/03/18 04:55:28;;;;;;;;;;;;;;;;;;4985065;28;90328;-74
2024/03/18 04:57:55;;;;;;;;;;;;;;;;;;4982188;28;90270;-75
2024/03/18 05:00:22;;;;;;;;;;;;;;;;;;4981641;28;92798;-74
2024/03/18 05:02:47;;;;;;;;;;;;;;;;;;4984385;28;89447;-75
2024/03/18 05:05:13;;;;;;;;;;;;;;;;;;4980978;28;89449;-74
2024/03/18 05:07:39;;;;;;;;;;;;;;;;;;4976776;28;89383;-74
2024/03/18 05:10:05;;;;;;;;;;;;;;;;;;4981601;28;89135;-74
2024/03/18 05:12:31;;;;;;;;;;;;;;;;;;4978060;28;90197;-74
2024/03/18 05:14:57;;;;;;;;;;;;;;;;;;4975395;28;89461;-74
2024/03/18 05:17:23;;;;;;;;;;;;;;;;;;4979970;28;89537;-74
2024/03/18 05:19:48;;;;;;;;;;;;;;;;;;4976399;28;89790;-74
2024/03/18 05:22:14;;;;;;;;;;;;;;;;;;4978112;28;90659;-75
2024/03/18 05:24:43;;;;;;;;;;;;;;;;;;4977047;28;89618;-75
2024/03/18 05:27:08;;;;;;;;;;;;;;;;;;4979156;28;89963;-75
2024/03/18 05:29:34;;;;;;;;;;;;;;;;;;4975934;28;89690;-74
2024/03/18 05:32:05;;;;;;;;;;;;;;;;;;4985242;28;90025;-75
2024/03/18 05:34:30;;;;;;;;;;;;;;;;;;4968366;28;89431;-74
2024/03/18 05:36:55;;;;;;;;;;;;;;;;;;4976057;28;89073;-75
2024/03/18 05:39:20;;;;;;;;;;;;;;;;;;4977466;28;89752;-74
2024/03/18 05:41:47;;;;;;;;;;;;;;;;;;4978028;28;89664;-75
2024/03/18 05:44:12;;;;;;;;;;;;;;;;;;4982225;28;89245;-75
2024/03/18 05:46:38;;;;;;;;;;;;;;;;;;4978023;28;90049;-74
2024/03/18 05:49:04;;;;;;;;;;;;;;;;;;4979767;28;90467;-75
2024/03/18 05:51:29;;;;;;;;;;;;;;;;;;4975574;28;90050;-75
2024/03/18 05:53:54;;;;;;;;;;;;;;;;;;4970964;28;91574;-74
2024/03/18 05:56:20;;;;;;;;;;;;;;;;;;4975233;28;89064;-74
2024/03/18 05:58:45;;;;;;;;;;;;;;;;;;4975128;28;89844;-74
2024/03/18 06:01:10;;;;;;;;;;;;;;;;;;4973449;28;89326;-74
2024/03/18 06:03:41;;;;;;;;;;;;;;;;;;4968187;28;89746;-74
2024/03/18 06:06:07;;;;;;;;;;;;;;;;;;4978506;28;89751;-74
2024/03/18 06:08:36;;;;;;;;;;;;;;;;;;4975964;28;89920;-74
2024/03/18 06:11:02;;;;;;;;;;;;;;;;;;4979989;28;89448;-74
2024/03/18 06:13:28;;;;;;;;;;;;;;;;;;4976449;28;89700;-74
2024/03/18 06:15:53;;;;;;;;;;;;;;;;;;4972974;28;90361;-74
2024/03/18 06:18:19;;;;;;;;;;;;;;;;;;4974063;28;92376;-75
2024/03/18 06:20:48;;;;;;;;;;;;;;;;;;4976806;28;90552;-75
2024/03/18 06:23:16;;;;;;;;;;;;;;;;;;4977071;28;89056;-75
2024/03/18 06:26:00;;;;;;;;;;;;;;;;;;4976966;28;89759;-75
2024/03/18 06:28:29;;;;;;;;;;;;;;;;;;4976832;28;90043;-74
2024/03/18 06:30:55;;;;;;;;;;;;;;;;;;4983897;28;89164;-75
2024/03/18 06:33:21;;;;;;;;;;;;;;;;;;4978986;28;90034;-75
2024/03/18 06:35:47;;;;;;;;;;;;;;;;;;4974497;28;89140;-75
2024/03/18 06:38:12;;;;;;;;;;;;;;;;;;4977468;28;89993;-75
2024/03/18 06:40:39;;;;;;;;;;;;;;;;;;4977400;28;89360;-74
2024/03/18 06:43:04;;;;;;;;;;;;;;;;;;4976839;28;89927;-74
2024/03/18 06:45:29;;;;;;;;;;;;;;;;;;4981740;28;89739;-75
2024/03/18 06:47:54;;;;;;;;;;;;;;;;;;4974729;28;89540;-75
2024/03/18 06:50:21;;;;;;;;;;;;;;;;;;4976811;28;89569;-75
2024/03/18 06:52:47;;;;;;;;;;;;;;;;;;4976022;28;90040;-75
2024/03/18 06:55:12;;;;;;;;;;;;;;;;;;4978047;28;92087;-75
2024/03/18 06:57:37;;;;;;;;;;;;;;;;;;4978424;28;89717;-74
2024/03/18 07:00:06;;;;;;;;;;;;;;;;;;4978476;28;89426;-74
2024/03/18 07:02:31;;;;;;;;;;;;;;;;;;4973684;28;89669;-78
2024/03/18 07:04:56;;;;;;;;;;;;;;;;;;4976267;28;92777;-75
2024/03/18 07:07:22;;;;;;;;;;;;;;;;;;4974669;28;91698;-73
2024/03/18 07:09:48;;;;;;;;;;;;;;;;;;4974798;28;90323;-75
2024/03/18 07:12:14;;;;;;;;;;;;;;;;;;4972452;28;92772;-73
2024/03/18 07:14:41;;;;;;;;;;;;;;;;;;4970250;28;90058;-73
2024/03/18 07:17:06;;;;;;;;;;;;;;;;;;4966567;28;92353;-74
2024/03/18 07:19:31;;;;;;;;;;;;;;;;;;4967574;28;89270;-73
2024/03/18 07:21:56;;;;;;;;;;;;;;;;;;4972517;28;90883;-74
2024/03/18 07:24:22;;;;;;;;;;;;;;;;;;4967496;28;89691;-72
2024/03/18 07:26:47;;;;;;;;;;;;;;;;;;4969831;28;89409;-73
2024/03/18 07:29:12;;;;;;;;;;;;;;;;;;4971811;28;89012;-73
2024/03/18 07:31:37;;;;;;;;;;;;;;;;;;4976757;28;89704;-73
2024/03/18 07:34:03;;;;;;;;;;;;;;;;;;4981177;28;89715;-72
2024/03/18 07:36:28;;;;;;;;;;;;;;;;;;4977596;28;89525;-73
2024/03/18 07:38:53;;;;;;;;;;;;;;;;;;4975485;28;90258;-74
2024/03/18 07:41:18;;;;;;;;;;;;;;;;;;4974027;28;89724;-74
2024/03/18 07:43:44;;;;;;;;;;;;;;;;;;4973625;28;89760;-73
2024/03/18 07:46:09;;;;;;;;;;;;;;;;;;4973367;28;89564;-75
2024/03/18 07:48:35;;;;;;;;;;;;;;;;;;4969103;28;91247;-75
2024/03/18 07:51:02;;;;;;;;;;;;;;;;;;4971099;28;89936;-75
2024/03/18 07:53:28;;;;;;;;;;;;;;;;;;4976337;28;89645;-75
2024/03/18 07:56:00;;;;;;;;;;;;;;;;;;4979675;28;90207;-75
2024/03/18 07:58:26;;;;;;;;;;;;;;;;;;4972629;28;89706;-75
2024/03/18 08:00:51;;;;;;;;;;;;;;;;;;5009191;28;89166;-75
2024/03/18 08:03:16;;;;;;;;;;;;;;;;;;4973926;28;90082;-75
2024/03/18 08:05:41;;;;;;;;;;;;;;;;;;4973744;28;89675;-77
2024/03/18 08:08:07;;;;;;;;;;;;;;;;;;4978320;28;89451;-75
2024/03/18 08:10:32;;;;;;;;;;;;;;;;;;4978647;28;89724;-79
2024/03/18 08:12:57;;;;;;;;;;;;;;;;;;4979026;28;89777;-76
2024/03/18 08:15:23;;;;;;;;;;;;;;;;;;5012630;28;90523;-75
2024/03/18 08:17:48;;;;;;;;;;;;;;;;;;4977646;28;89977;-75
2024/03/18 08:20:13;;;;;;;;;;;;;;;;;;4977749;28;90134;-78
2024/03/18 08:22:38;;;;;;;;;;;;;;;;;;4970065;28;90259;-77
2024/03/18 08:25:04;;;;;;;;;;;;;;;;;;4974701;28;89636;-77
2024/03/18 08:27:32;;;;;;;;;;;;;;;;;;4977369;28;89059;-81
2024/03/18 08:29:57;;;;;;;;;;;;;;;;;;4975557;28;91871;-76
2024/03/18 08:32:22;;;;;;;;;;;;;;;;;;4978691;28;90544;-75
2024/03/18 08:34:48;;;;;;;;;;;;;;;;;;4974754;28;90233;-81
2024/03/18 08:37:13;;;;;;;;;;;;;;;;;;4975671;28;90885;-76
2024/03/18 08:39:39;;;;;;;;;;;;;;;;;;4974720;28;89289;-76
2024/03/18 08:42:04;;;;;;;;;;;;;;;;;;4976781;28;89871;-77
2024/03/18 08:44:29;;;;;;;;;;;;;;;;;;4978978;28;89610;-77
2024/03/18 08:46:54;;;;;;;;;;;;;;;;;;4978389;28;88987;-78
2024/03/18 08:49:22;;;;;;;;;;;;;;;;;;4971914;28;89858;-77
2024/03/18 08:51:47;;;;;;;;;;;;;;;;;;4970257;28;89233;-76
2024/03/18 08:54:14;;;;;;;;;;;;;;;;;;4972547;28;89402;-77
2024/03/18 08:56:39;;;;;;;;;;;;;;;;;;5006273;28;90697;-77
2024/03/18 08:59:05;;;;;;;;;;;;;;;;;;4971953;28;90373;-77
2024/03/18 09:01:30;;;;;;;;;;;;;;;;;;4965453;28;89628;-77
2024/03/18 09:03:55;;;;;;;;;;;;;;;;;;4976712;28;90150;-77
2024/03/18 09:06:20;;;;;;;;;;;;;;;;;;4973786;28;89143;-77
2024/03/18 09:08:46;;;;;;;;;;;;;;;;;;4980837;28;89713;-77
2024/03/18 09:11:13;;;;;;;;;;;;;;;;;;4971883;28;89509;-76
2024/03/18 09:13:42;;;;;;;;;;;;;;;;;;4976412;28;90459;-77
2024/03/18 09:16:07;;;;;;;;;;;;;;;;;;4967379;28;90940;-78
2024/03/18 09:18:32;;;;;;;;;;;;;;;;;;4999251;28;89467;-78
2024/03/18 09:20:58;;;;;;;;;;;;;;;;;;4975705;28;89451;-77
2024/03/18 09:23:23;;;;;;;;;;;;;;;;;;4966389;28;92338;-78
2024/03/18 09:25:49;;;;;;;;;;;;;;;;;;4975067;28;90026;-77
2024/03/18 09:28:14;;;;;;;;;;;;;;;;;;4980057;28;89748;-77
2024/03/18 09:30:39;;;;;;;;;;;;;;;;;;4983465;28;89536;-78
2024/03/18 09:33:05;;;;;;;;;;;;;;;;;;4976008;28;89634;-76
2024/03/18 09:35:30;;;;;;;;;;;;;;;;;;5010297;28;90923;-77
2024/03/18 09:37:55;;;;;;;;;;;;;;;;;;4977325;28;91184;-78
2024/03/18 09:40:24;;;;;;;;;;;;;;;;;;4977589;28;89551;-77
2024/03/18 09:42:49;;;;;;;;;;;;;;;;;;4977210;28;89939;-75
2024/03/18 09:45:18;;;;;;;;;;;;;;;;;;4979889;28;89377;-77
2024/03/18 09:47:45;;;;;;;;;;;;;;;;;;4981106;28;90502;-78
2024/03/18 09:50:13;;;;;;;;;;;;;;;;;;4976515;28;89598;-77
2024/03/18 09:52:40;;;;;;;;;;;;;;;;;;4975782;28;90649;-78
2024/03/18 09:55:18;;;;;;;;;;;;;;;;;;4972694;28;90620;-77
2024/03/18 09:57:44;;;;;;;;;;;;;;;;;;4974659;28;89692;-76
2024/03/18 10:00:10;;;;;;;;;;;;;;;;;;4976553;28;89307;-78
2024/03/18 10:02:36;;;;;;;;;;;;;;;;;;4979061;28;91575;-77
2024/03/18 10:05:08;;;;;;;;;;;;;;;;;;4977098;28;89604;-77
2024/03/18 10:07:34;;;;;;;;;;;;;;;;;;4979685;28;89092;-77
2024/03/18 10:09:59;;;;;;;;;;;;;;;;;;4977031;28;90132;-78
2024/03/18 10:12:24;;;;;;;;;;;;;;;;;;4975309;28;90007;-77
2024/03/18 10:14:50;;;;;;;;;;;;;;;;;;4973651;28;90006;-77
2024/03/18 10:17:16;;;;;;;;;;;;;;;;;;4975327;28;91695;-76
2024/03/18 10:19:50;;;;;;;;;;;;;;;;;;4981802;28;89236;-76
2024/03/18 10:22:15;;;;;;;;;;;;;;;;;;4973414;28;89668;-75
2024/03/18 10:24:41;;;;;;;;;;;;;;;;;;4979065;28;89347;-76
2024/03/18 10:27:07;;;;;;;;;;;;;;;;;;4974037;28;89619;-76
2024/03/18 10:29:32;;;;;;;;;;;;;;;;;;4981314;28;90122;-76
2024/03/18 10:31:57;;;;;;;;;;;;;;;;;;4983337;28;89188;-76
2024/03/18 10:34:23;;;;;;;;;;;;;;;;;;4974636;28;89783;-76
2024/03/18 10:36:56;;;;;;;;;;;;;;;;;;4977569;28;89842;-76
2024/03/18 10:39:31;;;;;;;;;;;;;;;;;;4975992;28;89130;-76
2024/03/18 10:42:01;;;;;;;;;;;;;;;;;;4976265;28;89734;-76
2024/03/18 10:44:30;;;;;;;;;;;;;;;;;;4977245;28;89324;-76
2024/03/18 10:46:55;;;;;;;;;;;;;;;;;;4982720;28;89241;-76
2024/03/18 10:49:21;;;;;;;;;;;;;;;;;;4975549;28;89888;-77
2024/03/18 10:51:47;;;;;;;;;;;;;;;;;;4979578;28;89317;-75
2024/03/18 10:54:16;;;;;;;;;;;;;;;;;;4975914;28;91264;-76
2024/03/18 10:56:45;;;;;;;;;;;;;;;;;;4974955;28;90697;-75
2024/03/18 10:59:15;;;;;;;;;;;;;;;;;;4975021;28;89504;-75
2024/03/18 11:01:41;;;;;;;;;;;;;;;;;;4975229;28;89727;-75
2024/03/18 11:04:20;;;;;;;;;;;;;;;;;;4975351;28;89147;-75
2024/03/18 11:06:49;;;;;;;;;;;;;;;;;;4977151;28;89728;-75
2024/03/18 11:09:18;;;;;;;;;;;;;;;;;;4975816;28;91227;-75
2024/03/18 11:11:44;;;;;;;;;;;;;;;;;;4975494;28;89794;-74
2024/03/18 11:14:12;;;;;;;;;;;;;;;;;;4979726;28;89893;-79
2024/03/18 11:16:43;;;;;;;;;;;;;;;;;;4973230;28;92209;-75
2024/03/18 11:19:14;;;;;;;;;;;;;;;;;;4976382;28;90259;-77
2024/03/18 11:21:39;;;;;;;;;;;;;;;;;;4981138;28;90894;-76
2024/03/18 11:24:05;;;;;;;;;;;;;;;;;;4968372;28;91839;-75
2024/03/18 11:26:31;;;;;;;;;;;;;;;;;;4976754;28;89498;-74
2024/03/18 11:29:04;;;;;;;;;;;;;;;;;;4974806;28;90121;-76
2024/03/18 11:31:34;;;;;;;;;;;;;;;;;;4998281;28;90360;-74
2024/03/18 11:34:00;;;;;;;;;;;;;;;;;;4981055;28;89036;-75
2024/03/18 11:36:25;;;;;;;;;;;;;;;;;;4974333;28;89690;-76
2024/03/18 11:38:50;;;;;;;;;;;;;;;;;;4980775;28;89667;-76
2024/03/18 11:41:16;;;;;;;;;;;;;;;;;;4971766;28;89002;-74
2024/03/18 11:43:47;;;;;;;;;;;;;;;;;;4972643;28;89565;-74
2024/03/18 11:46:15;;;;;;;;;;;;;;;;;;4968376;28;89298;-74
2024/03/18 11:48:41;;;;;;;;;;;;;;;;;;4969403;28;89694;-74
2024/03/18 11:51:07;;;;;;;;;;;;;;;;;;4970413;28;90175;-74
2024/03/18 11:53:32;;;;;;;;;;;;;;;;;;4973926;28;89353;-74
2024/03/18 11:55:58;;;;;;;;;;;;;;;;;;4976956;28;89744;-74
2024/03/18 11:58:23;;;;;;;;;;;;;;;;;;4969696;28;90065;-74
2024/03/18 12:00:49;;;;;;;;;;;;;;;;;;4976814;28;90312;-73
2024/03/18 12:03:14;;;;;;;;;;;;;;;;;;4976979;28;89982;-74
2024/03/18 12:05:41;;;;;;;;;;;;;;;;;;4970239;28;89949;-74
2024/03/18 12:08:09;;;;;;;;;;;;;;;;;;4974376;28;90818;-74
2024/03/18 12:10:35;;;;;;;;;;;;;;;;;;4974234;28;89608;-76
2024/03/18 12:13:01;;;;;;;;;;;;;;;;;;4974063;28;89039;-74
2024/03/18 12:15:27;;;;;;;;;;;;;;;;;;4973515;28;91323;-75
2024/03/18 12:17:52;;;;;;;;;;;;;;;;;;4975121;28;89412;-75
2024/03/18 12:20:23;;;;;;;;;;;;;;;;;;4971324;28;89741;-74
2024/03/18 12:22:58;;;;;;;;;;;;;;;;;;4971903;28;88991;-74
2024/03/18 12:28:32;;;;;;;;;;;;;;;;;;4971421;28;89612;-74
2024/03/18 12:30:58;;;;;;;;;;;;;;;;;;4970990;28;89350;-76
2024/03/18 12:33:24;;;;;;;;;;;;;;;;;;5006315;28;90358;-74
2024/03/18 12:35:50;;;;;;;;;;;;;;;;;;4968442;28;90083;-74
2024/03/18 12:38:15;;;;;;;;;;;;;;;;;;4980240;28;90089;-74
2024/03/18 12:40:40;;;;;;;;;;;;;;;;;;4976962;28;90335;-74
2024/03/18 12:43:07;;;;;;;;;;;;;;;;;;4977182;28;89759;-75
2024/03/18 12:45:32;;;;;;;;;;;;;;;;;;4973699;28;89416;-75
2024/03/18 12:47:58;;;;;;;;;;;;;;;;;;4975240;28;91559;-75
2024/03/18 12:50:24;;;;;;;;;;;;;;;;;;4974119;28;89872;-75
2024/03/18 12:52:51;;;;;;;;;;;;;;;;;;4976798;28;89121;-74
2024/03/18 12:55:16;;;;;;;;;;;;;;;;;;4975977;28;90486;-75
2024/03/18 12:57:43;;;;;;;;;;;;;;;;;;4975350;28;89871;-74
2024/03/18 13:00:11;;;;;;;;;;;;;;;;;;4974345;28;90164;-74
2024/03/18 13:02:37;;;;;;;;;;;;;;;;;;4981572;28;89926;-75
2024/03/18 13:05:02;;;;;;;;;;;;;;;;;;4976689;28;89590;-74
2024/03/18 13:07:27;;;;;;;;;;;;;;;;;;5007961;28;91147;-74
2024/03/18 13:09:53;;;;;;;;;;;;;;;;;;5009407;28;91477;-74
2024/03/18 13:12:19;;;;;;;;;;;;;;;;;;4973847;28;89473;-75
2024/03/18 13:14:44;;;;;;;;;;;;;;;;;;4974801;28;89696;-76
2024/03/18 13:17:09;;;;;;;;;;;;;;;;;;4976464;28;89663;-75
2024/03/18 13:19:34;;;;;;;;;;;;;;;;;;4976298;28;89475;-75
2024/03/18 13:22:00;;;;;;;;;;;;;;;;;;4975711;28;89527;-76
2024/03/18 13:24:27;;;;;;;;;;;;;;;;;;4977273;28;90064;-75
2024/03/18 13:26:53;;;;;;;;;;;;;;;;;;4973648;28;89858;-74
2024/03/18 13:29:22;;;;;;;;;;;;;;;;;;4974036;28;89669;-74
2024/03/18 13:31:51;;;;;;;;;;;;;;;;;;4971333;28;89593;-74
2024/03/18 13:34:17;;;;;;;;;;;;;;;;;;4972600;28;90072;-75
2024/03/18 13:36:42;;;;;;;;;;;;;;;;;;4977416;28;89393;-75
2024/03/18 13:39:07;;;;;;;;;;;;;;;;;;5007244;28;90166;-74
2024/03/18 13:41:33;;;;;;;;;;;;;;;;;;4974244;28;90001;-74
2024/03/18 13:43:58;;;;;;;;;;;;;;;;;;4976646;28;90103;-75
2024/03/18 13:46:23;;;;;;;;;;;;;;;;;;5007433;28;92769;-75
2024/03/18 13:48:48;;;;;;;;;;;;;;;;;;4974567;28;90155;-75
2024/03/18 13:51:16;;;;;;;;;;;;;;;;;;4973783;28;89147;-75
2024/03/18 13:53:42;;;;;;;;;;;;;;;;;;4973477;28;89732;-74
2024/03/18 13:56:07;;;;;;;;;;;;;;;;;;4975110;28;89410;-75
2024/03/18 13:58:33;;;;;;;;;;;;;;;;;;5006959;28;89360;-75
2024/03/18 14:00:58;;;;;;;;;;;;;;;;;;4981991;28;89522;-74
2024/03/18 14:03:23;;;;;;;;;;;;;;;;;;4974909;28;89594;-75
2024/03/18 14:05:49;;;;;;;;;;;;;;;;;;4974491;28;90346;-75
2024/03/18 14:08:14;;;;;;;;;;;;;;;;;;4970850;28;89578;-75
2024/03/18 14:10:39;;;;;;;;;;;;;;;;;;4975366;28;90018;-75
2024/03/18 14:13:05;;;;;;;;;;;;;;;;;;4975421;28;90880;-75
2024/03/18 14:15:30;;;;;;;;;;;;;;;;;;4971617;28;89352;-75
2024/03/18 14:17:55;;;;;;;;;;;;;;;;;;4973894;28;89422;-75
2024/03/18 14:20:20;;;;;;;;;;;;;;;;;;4972901;28;89440;-73
2024/03/18 14:22:47;;;;;;;;;;;;;;;;;;4962160;28;89719;-74
2024/03/18 14:25:21;;;;;;;;;;;;;;;;;;4969899;28;89827;-73
2024/03/18 14:28:04;;;;;;;;;;;;;;;;;;4976045;28;90007;-73
2024/03/18 14:30:30;;;;;;;;;;;;;;;;;;4975674;28;89045;-72
2024/03/18 14:32:55;;;;;;;;;;;;;;;;;;4974773;28;89572;-74
2024/03/18 14:35:21;;;;;;;;;;;;;;;;;;4975634;28;89225;-73
2024/03/18 14:37:46;;;;;;;;;;;;;;;;;;4974034;28;89541;-74
2024/03/18 14:40:13;;;;;;;;;;;;;;;;;;4974552;28;89801;-74
2024/03/18 14:42:38;;;;;;;;;;;;;;;;;;4968479;28;89461;-74
2024/03/18 14:45:04;;;;;;;;;;;;;;;;;;4972611;28;89378;-75
2024/03/18 14:47:29;;;;;;;;;;;;;;;;;;4973275;28;89803;-74
2024/03/18 14:49:55;;;;;;;;;;;;;;;;;;4977368;28;90334;-74
2024/03/18 14:52:20;;;;;;;;;;;;;;;;;;4973522;28;89904;-72
2024/03/18 14:54:46;;;;;;;;;;;;;;;;;;4972984;28;89749;-74
2024/03/18 14:57:11;;;;;;;;;;;;;;;;;;4972372;28;89384;-73
2024/03/18 14:59:37;;;;;;;;;;;;;;;;;;4974038;28;89701;-74
2024/03/18 15:02:02;;;;;;;;;;;;;;;;;;4962013;28;89746;-74
2024/03/18 15:04:33;;;;;;;;;;;;;;;;;;4951766;28;89631;-74
2024/03/18 15:06:58;;;;;;;;;;;;;;;;;;4944047;28;89814;-72
2024/03/18 15:09:23;;;;;;;;;;;;;;;;;;4944410;28;89731;-73
2024/03/18 15:11:48;;;;;;;;;;;;;;;;;;4948584;28;89615;-73
2024/03/18 15:14:13;;;;;;;;;;;;;;;;;;4945822;28;89411;-72
2024/03/18 15:16:39;;;;;;;;;;;;;;;;;;4945596;28;89539;-75
2024/03/18 15:19:04;;;;;;;;;;;;;;;;;;4946218;28;90048;-73
2024/03/18 15:21:29;;;;;;;;;;;;;;;;;;4945723;28;90037;-75
2024/03/18 15:29:08;;;;;;;;;;;;;;;;;;4946157;28;89035;-74
2024/03/18 15:31:33;;;;;;;;;;;;;;;;;;4945582;28;89451;-75
2024/03/18 15:33:59;;;;;;;;;;;;;;;;;;4948125;28;90411;-75
2024/03/18 15:36:25;;;;;;;;;;;;;;;;;;4945566;28;89527;-75
2024/03/18 15:38:50;;;;;;;;;;;;;;;;;;4945434;28;89186;-74
2024/03/18 15:41:15;;;;;;;;;;;;;;;;;;4945484;28;89315;-75
2024/03/18 15:43:40;;;;;;;;;;;;;;;;;;4945905;28;89438;-75
2024/03/18 15:46:06;;;;;;;;;;;;;;;;;;4945769;28;89726;-75
2024/03/18 15:48:32;;;;;;;;;;;;;;;;;;4945784;28;91082;-75
2024/03/18 15:50:57;;;;;;;;;;;;;;;;;;4945251;28;89325;-75
2024/03/18 15:53:22;;;;;;;;;;;;;;;;;;4948219;28;89095;-76
2024/03/18 15:55:48;;;;;;;;;;;;;;;;;;4945734;28;89036;-75
2024/03/18 15:58:14;;;;;;;;;;;;;;;;;;4945408;28;89600;-74
2024/03/18 16:00:39;;;;;;;;;;;;;;;;;;4948426;28;89258;-75
2024/03/18 16:03:07;;;;;;;;;;;;;;;;;;4973115;28;89183;-75
2024/03/18 16:05:35;;;;;;;;;;;;;;;;;;4964505;28;89682;-73
2024/03/18 16:08:00;;;;;;;;;;;;;;;;;;4964760;28;89997;-73
2024/03/18 16:10:29;;;;;;;;;;;;;;;;;;4964477;28;89179;-72
2024/03/18 16:12:55;;;;;;;;;;;;;;;;;;4963398;28;91264;-72
2024/03/18 16:15:20;;;;;;;;;;;;;;;;;;4967438;28;89471;-73
2024/03/18 16:17:45;;;;;;;;;;;;;;;;;;4964407;28;89580;-72
2024/03/18 16:20:12;;;;;;;;;;;;;;;;;;4964734;28;89440;-74
2024/03/18 16:22:38;;;;;;;;;;;;;;;;;;4964071;28;89274;-74
2024/03/18 16:25:03;;;;;;;;;;;;;;;;;;4964666;28;89722;-74
2024/03/18 16:27:28;;;;;;;;;;;;;;;;;;4964639;28;90351;-73
2024/03/18 16:29:53;;;;;;;;;;;;;;;;;;4964982;28;89486;-75
2024/03/18 16:32:19;;;;;;;;;;;;;;;;;;4964752;28;89698;-75
2024/03/18 16:34:44;;;;;;;;;;;;;;;;;;4996179;28;91825;-75
2024/03/18 16:37:09;;;;;;;;;;;;;;;;;;4999695;28;89737;-75
2024/03/18 16:39:34;;;;;;;;;;;;;;;;;;4964409;28;89484;-75
2024/03/18 16:42:00;;;;;;;;;;;;;;;;;;4964375;28;89335;-75
2024/03/18 16:44:25;;;;;;;;;;;;;;;;;;4964516;28;89515;-75
2024/03/18 16:46:50;;;;;;;;;;;;;;;;;;4964369;28;89894;-75